Grand Forks Air Force Base, ND

16:35 CDT le 21 octobre 2014 (GMT -0500)
Grand Forks International | Change Station
CLOSE
Current Station
Aéroport
Location: Grand Forks,
Altitude: 843 ft
Stations météo à proximité

Alt. 843 ft 47.95 °N, 97.18 °W | Updated 42 minutes ago

Ciel dégagé
Ciel dégagé
65 ° F
Paraît 65 ° F
N
26
Vent Variable Vent de SSE
Gusts 38 mph

Aujourd'hui
Haut(e) -- | Bas -- ° F
--% Risque de précip.
Hier
Haut(e) -- | Bas -- ° F
Precip. -- pouce
7:56 AM 6:28 PM
Lune descendante, 4% visible
Pression 29.88 pouce
Visibilité 10.0 Miles terrestres
Nuages Ciel dégagé
Point de rosée 42 ° F
Humidité 43%
Précipitations 0.00 pouce
Profondeur de la couche neigeuse Non disponible.
UV 2 sur 12
Pollen 2.30 sur 12
Qualité de l'air Non disponible.
Flu Activity Local Activity
METAR KGFK 212053Z 15023G33KT 10SM CLR 18/06 A2986 RMK AO2 PK WND 15034/2031 SLP117 T01830056 56025

More Conditions Fewer Conditions

Pression 29.88 pouce
Visibilité 10.0 Miles terrestres
Nuages Ciel dégagé
Point de rosée 42 ° F
Humidité 43%
Précipitations 0.00 pouce
Profondeur de la couche neigeuse Non disponible.
UV 2 sur 12
Pollen 2.30 sur 12
Qualité de l'air Non disponible.
Flu Activity Local Activity
METAR KGFK 212053Z 15023G33KT 10SM CLR 18/06 A2986 RMK AO2 PK WND 15034/2031 SLP117 T01830056 56025

More Conditions Fewer Conditions

10-Day Weather Forecast

Almanac

Astronomie

Oct. 21, 2014 Lever Coucher
Temps réel 07:56 CDT 18:28 CDT
Crépuscule civil 07:25 CDT 19:00 CDT
Crépuscule nautique 06:49 CDT 19:36 CDT
Crépuscule astronomique 06:13 CDT 20:12 CDT
Lune 05:32 CDT 17:31 CDT
Durée de lumière visible 11h 35m
Longueur du jour
10h 32m
Tomorrow will be 3m 18s shorter.
Lune descendante, 4% of the Moon is Illuminated
Aujourd'hui
Lune descendante
Oct 23
Nouveau
Oct 30
Premier quartier
Nov 6
Pleine lune
Nov 14
Dernier quartier

Extrêmes aujourd'hui

State Highs State Lows

Community

WunderPhotos

Upload Photos

1,763,779 Photos téléchargées !

Nearby

Épaisseur de neige

Station Depth Altitude
Pas de nouvelles chutes de neige

Activité sismique

Ville Distance Mag. Time & Date
No recent earthquake activity has been reported nearby.
Minimum magnitude displayed is 2.5.

Températures des eaux côtières

Lieu Température
Aucun rapport de station

Stations météo à proximité